Time;durP1;ratioP1;P1;durP2;ratioP2;P2;SDS_P1;SDS_P2;PMS_P1;PMS_P2;Temp;Humidity;BMP_temperature;BMP_pressure;BME280_temperature;BME280_humidity;BME280_pressure;Samples;Min_cycle;Max_cycle;Signal;HPM_P1;HPM_P2
2023/03/26 00:01:49;;;;;;;12.55;4.65;;;11.90;69.40;;;;;;4986895;28;20054;-54
2023/03/26 00:04:20;;;;;;;8.50;3.95;;;11.90;69.40;;;;;;4989038;28;20245;-52
2023/03/26 00:06:56;;;;;;;14.13;4.80;;;11.90;69.30;;;;;;4987624;28;20054;-50
2023/03/26 00:09:22;;;;;;;8.52;4.10;;;11.90;69.20;;;;;;4983722;28;20543;-50
2023/03/26 00:11:51;;;;;;;16.65;5.03;;;11.80;69.20;;;;;;4989359;28;20093;-51
2023/03/26 00:14:18;;;;;;;15.82;4.80;;;11.80;69.30;;;;;;4989819;28;20042;-49
2023/03/26 00:16:48;;;;;;;16.52;4.22;;;11.80;69.40;;;;;;4989483;28;20042;-50
2023/03/26 00:19:15;;;;;;;17.08;4.22;;;11.80;69.40;;;;;;4984103;28;20043;-54
2023/03/26 00:21:42;;;;;;;12.43;4.45;;;11.70;69.60;;;;;;4990951;28;20050;-49
2023/03/26 00:24:16;;;;;;;14.95;4.30;;;11.70;70.00;;;;;;4992035;28;20081;-49
2023/03/26 00:26:43;;;;;;;13.75;4.30;;;11.70;69.90;;;;;;4989916;28;20499;-51
2023/03/26 00:29:14;;;;;;;12.10;3.63;;;11.70;69.80;;;;;;4991358;28;20031;-53
2023/03/26 00:31:44;;;;;;;12.57;4.30;;;11.60;69.90;;;;;;4987381;28;20069;-53
2023/03/26 00:34:14;;;;;;;16.20;4.18;;;11.60;70.00;;;;;;4988318;28;20050;-49
2023/03/26 00:36:41;;;;;;;19.50;5.07;;;11.60;69.90;;;;;;4980344;28;20406;-52
2023/03/26 00:39:16;;;;;;;16.63;4.70;;;11.60;70.00;;;;;;4992404;28;20042;-52
2023/03/26 00:41:43;;;;;;;12.45;4.65;;;11.60;70.00;;;;;;4991204;28;20104;-54
2023/03/26 00:44:10;;;;;;;12.32;4.63;;;11.60;70.00;;;;;;4953939;28;20051;-51
2023/03/26 00:46:36;;;;;;;14.20;5.05;;;11.60;69.90;;;;;;4967623;28;20561;-51
2023/03/26 00:49:04;;;;;;;18.77;5.35;;;11.60;70.10;;;;;;4992154;28;20511;-51
2023/03/26 00:51:36;;;;;;;12.23;3.88;;;11.60;70.30;;;;;;4977662;28;20046;-51
2023/03/26 00:54:07;;;;;;;14.85;4.60;;;11.60;70.20;;;;;;4992725;28;20101;-50
2023/03/26 00:56:34;;;;;;;15.95;4.93;;;11.60;70.10;;;;;;4974005;28;20046;-50
2023/03/26 00:59:01;;;;;;;15.38;4.50;;;11.60;70.20;;;;;;4967252;28;20142;-53
2023/03/26 01:01:37;;;;;;;10.93;5.18;;;11.70;70.20;;;;;;4974514;28;20053;-49
2023/03/26 01:04:26;;;;;;;17.92;4.82;;;11.70;70.00;;;;;;4992555;28;20089;-50
2023/03/26 01:07:00;;;;;;;14.13;4.75;;;11.70;70.10;;;;;;4982561;28;20038;-52
2023/03/26 01:09:32;;;;;;;8.80;4.05;;;11.60;69.90;;;;;;4973479;28;20149;-52
2023/03/26 01:12:01;;;;;;;13.23;4.50;;;11.60;69.90;;;;;;4992080;28;20047;-52
2023/03/26 01:14:28;;;;;;;16.08;5.05;;;11.60;69.90;;;;;;4988963;28;20049;-50
2023/03/26 01:16:57;;;;;;;11.55;5.30;;;11.60;70.00;;;;;;4969516;28;20053;-52
2023/03/26 01:19:44;;;;;;;15.80;4.45;;;11.50;70.20;;;;;;4990816;28;20038;-51
2023/03/26 01:22:27;;;;;;;17.02;4.22;;;11.50;70.30;;;;;;4987798;28;20046;-49
2023/03/26 01:24:55;;;;;;;14.82;4.53;;;11.40;70.30;;;;;;4992349;28;20053;-51
2023/03/26 01:27:40;;;;;;;14.20;4.75;;;11.40;71.00;;;;;;4990692;28;20518;-49
2023/03/26 01:30:42;;;;;;;13.75;4.32;;;11.40;70.60;;;;;;4986225;28;20121;-52
2023/03/26 01:33:32;;;;;;;16.83;4.47;;;11.30;70.70;;;;;;4971460;28;20047;-55
2023/03/26 01:36:01;;;;;;;15.98;4.32;;;11.30;70.80;;;;;;4974459;28;20081;-53
2023/03/26 01:38:36;;;;;;;10.55;5.22;;;11.30;70.90;;;;;;4989308;28;20097;-49
2023/03/26 01:41:06;;;;;;;17.77;5.20;;;11.30;71.10;;;;;;4973617;28;20053;-50
2023/03/26 01:43:44;;;;;;;19.10;5.97;;;11.20;71.10;;;;;;4981954;28;20069;-49
2023/03/26 01:46:16;;;;;;;17.75;5.88;;;11.20;71.20;;;;;;4987180;28;20165;-52
2023/03/26 01:48:52;;;;;;;14.98;5.38;;;11.20;71.10;;;;;;4990601;28;20050;-53
2023/03/26 01:51:33;;;;;;;14.02;4.93;;;11.10;71.00;;;;;;4985115;28;20043;-52
2023/03/26 01:54:08;;;;;;;15.63;5.07;;;11.10;71.10;;;;;;4991688;28;20066;-53
2023/03/26 01:57:00;;;;;;;16.98;5.40;;;11.10;71.00;;;;;;4968463;28;20422;-49
2023/03/26 01:59:39;;;;;;;12.73;5.60;;;11.10;71.20;;;;;;4990647;28;20053;-50
2023/03/26 02:02:12;;;;;;;22.48;6.07;;;11.00;71.20;;;;;;4991488;28;20670;-52
2023/03/26 02:04:53;;;;;;;18.13;5.15;;;11.00;71.40;;;;;;4981570;28;20034;-52
2023/03/26 02:07:37;;;;;;;21.83;5.00;;;11.00;71.50;;;;;;4970583;28;20046;-50
2023/03/26 02:10:14;;;;;;;16.38;5.00;;;11.00;71.80;;;;;;4990906;28;20411;-50
2023/03/26 02:12:43;;;;;;;13.35;5.07;;;10.90;71.80;;;;;;4978851;28;20041;-53
2023/03/26 02:15:13;;;;;;;15.63;4.90;;;10.90;71.90;;;;;;4981400;28;20043;-51
2023/03/26 02:17:40;;;;;;;11.77;5.15;;;10.90;72.00;;;;;;4973374;28;20051;-49
2023/03/26 02:20:09;;;;;;;16.67;4.82;;;10.90;72.10;;;;;;4988523;28;20050;-52
2023/03/26 02:22:40;;;;;;;11.98;3.72;;;10.90;72.20;;;;;;4981234;28;20068;-52
2023/03/26 02:25:20;;;;;;;13.00;4.53;;;10.90;73.00;;;;;;4988271;28;20577;-50
2023/03/26 02:27:52;;;;;;;17.92;4.75;;;10.90;72.50;;;;;;4967599;28;20112;-51
2023/03/26 02:30:28;;;;;;;15.90;4.25;;;11.00;72.50;;;;;;4983062;28;20567;-51
2023/03/26 02:32:58;;;;;;;14.00;4.03;;;11.00;72.50;;;;;;4973001;28;20422;-51
2023/03/26 02:35:36;;;;;;;16.50;3.95;;;11.10;72.50;;;;;;4983540;28;20173;-55
2023/03/26 02:38:08;;;;;;;16.30;3.93;;;11.10;72.50;;;;;;4988058;28;20427;-50
2023/03/26 02:40:35;;;;;;;17.40;4.07;;;11.10;72.40;;;;;;4973148;28;20309;-50
2023/03/26 02:43:05;;;;;;;12.05;4.22;;;11.10;72.10;;;;;;4967640;28;20133;-54
2023/03/26 02:45:33;;;;;;;11.30;3.75;;;11.10;72.10;;;;;;4971875;28;20053;-51
2023/03/26 02:48:21;;;;;;;10.20;3.15;;;11.20;72.10;;;;;;4989654;28;20061;-55
2023/03/26 02:50:55;;;;;;;10.93;2.97;;;11.20;72.00;;;;;;4967376;28;20511;-49
2023/03/26 02:53:53;;;;;;;9.93;3.83;;;11.20;72.00;;;;;;4966799;28;20053;-53
2023/03/26 02:56:40;;;;;;;10.52;3.17;;;11.30;72.10;;;;;;4981810;28;20117;-50
2023/03/26 02:59:22;;;;;;;10.98;2.88;;;11.30;72.00;;;;;;4983551;28;20049;-49
2023/03/26 03:02:05;;;;;;;11.50;3.22;;;11.30;71.90;;;;;;4972240;28;20054;-49
2023/03/26 03:04:35;;;;;;;6.90;2.72;;;11.40;71.70;;;;;;4972435;28;20049;-53
2023/03/26 03:07:04;;;;;;;8.90;2.78;;;11.40;71.60;;;;;;4969707;28;20161;-49
2023/03/26 03:09:33;;;;;;;11.48;3.33;;;11.40;71.60;;;;;;4984221;28;20069;-52
2023/03/26 03:12:28;;;;;;;10.60;3.22;;;11.40;71.60;;;;;;4990127;28;20061;-49
2023/03/26 03:14:54;;;;;;;7.63;2.60;;;11.50;71.70;;;;;;4973364;28;20053;-52
2023/03/26 03:17:25;;;;;;;12.10;4.03;;;11.50;71.90;;;;;;4966566;28;20795;-54
2023/03/26 03:19:52;;;;;;;8.70;3.40;;;11.50;72.10;;;;;;4973100;28;20046;-49
2023/03/26 03:22:21;;;;;;;7.47;2.53;;;11.50;71.90;;;;;;4964189;28;20046;-52
2023/03/26 03:24:50;;;;;;;12.50;3.25;;;11.50;72.00;;;;;;4989481;28;20041;-49
2023/03/26 03:27:22;;;;;;;8.88;2.25;;;11.50;71.90;;;;;;4971453;28;20050;-53
2023/03/26 03:29:57;;;;;;;8.60;3.08;;;11.60;71.90;;;;;;4966740;28;20047;-53
2023/03/26 03:32:43;;;;;;;8.02;2.78;;;11.60;72.10;;;;;;4982481;28;20532;-53
2023/03/26 03:35:17;;;;;;;13.10;3.13;;;11.60;71.90;;;;;;4963904;28;20707;-49
2023/03/26 03:37:49;;;;;;;8.45;3.38;;;11.60;72.00;;;;;;4971950;28;20105;-50
2023/03/26 03:40:18;;;;;;;12.32;3.85;;;11.60;72.10;;;;;;4972784;28;20050;-51
2023/03/26 03:42:48;;;;;;;12.80;4.05;;;11.60;72.20;;;;;;4967821;28;20097;-50
2023/03/26 03:45:32;;;;;;;9.05;3.30;;;11.60;72.10;;;;;;4971726;28;20116;-49
2023/03/26 03:48:17;;;;;;;11.05;3.92;;;11.60;72.40;;;;;;4989189;28;20446;-52
2023/03/26 03:50:45;;;;;;;7.70;2.90;;;11.70;72.50;;;;;;4977051;28;20050;-49
2023/03/26 03:53:25;;;;;;;10.18;3.65;;;11.70;72.50;;;;;;4987161;28;20039;-53
2023/03/26 03:55:55;;;;;;;6.68;3.58;;;11.70;73.30;;;;;;4971639;28;20038;-49
2023/03/26 03:58:36;;;;;;;;;;;11.70;72.80;;;;;;4970225;28;20049;-53
2023/03/26 04:01:11;;;;;;;8.45;3.03;;;11.70;72.80;;;;;;4986335;28;20349;-50
2023/03/26 04:03:54;;;;;;;5.90;3.42;;;11.70;72.40;;;;;;4986219;28;20046;-50
2023/03/26 04:06:29;;;;;;;;;;;11.70;72.60;;;;;;4991452;28;20046;-51
2023/03/26 04:08:56;;;;;;;8.07;3.13;;;11.80;73.00;;;;;;4971901;28;19930;-48
2023/03/26 04:11:28;;;;;;;6.53;2.58;;;11.70;72.40;;;;;;4991509;28;20073;-48
2023/03/26 04:14:35;;;;;;;8.07;2.85;;;11.70;72.70;;;;;;4970726;28;20117;-51
2023/03/26 04:17:14;;;;;;;5.22;2.03;;;11.70;72.80;;;;;;4988364;28;20050;-51
2023/03/26 04:19:45;;;;;;;8.85;2.28;;;11.70;72.90;;;;;;4987891;28;20506;-53
2023/03/26 04:22:15;;;;;;;7.70;2.25;;;11.70;73.10;;;;;;4987528;28;20474;-53
2023/03/26 04:24:53;;;;;;;5.57;2.22;;;11.70;73.20;;;;;;4968889;28;20078;-48
2023/03/26 04:27:35;;;;;;;4.47;2.03;;;11.60;73.20;;;;;;4974525;28;20104;-51
2023/03/26 04:30:19;;;;;;;7.57;2.38;;;11.60;73.30;;;;;;4956525;28;20047;-53
2023/03/26 04:33:00;;;;;;;5.40;1.80;;;11.60;73.40;;;;;;4968880;28;20049;-53
2023/03/26 04:35:35;;;;;;;3.95;1.60;;;11.60;73.50;;;;;;4984501;28;20046;-53
2023/03/26 04:38:05;;;;;;;6.43;1.70;;;11.60;73.50;;;;;;4975192;28;20077;-49
2023/03/26 04:40:41;;;;;;;7.15;2.25;;;11.60;73.50;;;;;;4975366;28;20046;-51
2023/03/26 04:43:45;;;;;;;5.45;1.80;;;11.60;73.40;;;;;;4950891;28;20139;-51
2023/03/26 04:46:23;;;;;;;6.00;1.67;;;11.50;73.40;;;;;;4966686;28;20046;-51
2023/03/26 04:49:02;;;;;;;7.43;1.77;;;11.50;73.40;;;;;;4976062;28;20050;-52
2023/03/26 04:51:37;;;;;;;4.95;1.88;;;11.50;73.50;;;;;;4987603;28;20046;-53
2023/03/26 04:54:23;;;;;;;5.88;2.05;;;11.50;73.70;;;;;;4973949;28;20122;-50
2023/03/26 04:57:00;;;;;;;8.25;2.33;;;11.50;73.80;;;;;;4973921;28;20043;-50
2023/03/26 04:59:53;;;;;;;6.28;1.92;;;11.50;73.90;;;;;;4984144;28;20105;-48
2023/03/26 05:02:20;;;;;;;5.45;1.90;;;11.40;73.90;;;;;;4985878;28;20133;-49
2023/03/26 05:04:50;;;;;;;3.75;2.15;;;11.40;74.00;;;;;;4973394;28;20046;-51
2023/03/26 05:07:21;;;;;;;7.80;2.17;;;11.40;74.10;;;;;;4974153;28;20073;-53
2023/03/26 05:09:50;;;;;;;6.10;2.33;;;11.40;74.30;;;;;;4980687;28;20438;-50
2023/03/26 05:12:39;;;;;;;5.30;2.05;;;11.40;74.30;;;;;;4990038;28;20618;-51
2023/03/26 05:15:11;;;;;;;9.05;2.58;;;11.40;74.30;;;;;;4973916;28;20034;-54
2023/03/26 05:18:07;;;;;;;2.53;1.35;;;11.50;74.50;;;;;;4983667;28;20566;-52
2023/03/26 05:20:44;;;;;;;6.47;2.15;;;11.40;74.50;;;;;;4988630;28;20411;-55
2023/03/26 05:23:13;;;;;;;6.55;2.10;;;11.50;74.60;;;;;;4988383;28;20125;-49
2023/03/26 05:25:48;;;;;;;5.63;1.90;;;11.50;74.70;;;;;;4973857;28;20069;-54
2023/03/26 05:28:25;;;;;;;9.25;1.98;;;11.50;74.60;;;;;;4969129;28;20046;-53
2023/03/26 05:31:19;;;;;;;6.20;2.33;;;11.50;74.60;;;;;;4987946;28;20462;-50
2023/03/26 05:33:48;;;;;;;5.65;2.00;;;11.50;74.70;;;;;;4978353;28;20415;-52
2023/03/26 05:36:16;;;;;;;4.25;1.63;;;11.50;74.80;;;;;;4986117;28;20062;-50
2023/03/26 05:38:51;;;;;;;5.85;1.98;;;11.50;74.70;;;;;;4983604;28;20046;-52
2023/03/26 05:41:40;;;;;;;5.03;2.30;;;11.60;74.80;;;;;;4974487;28;20107;-52
2023/03/26 05:44:12;;;;;;;5.10;2.05;;;11.60;74.80;;;;;;4985239;28;20108;-55
2023/03/26 05:46:46;;;;;;;7.32;2.50;;;11.60;74.80;;;;;;4973578;28;20085;-53
2023/03/26 05:49:19;;;;;;;6.50;2.42;;;11.60;74.70;;;;;;4991186;28;20093;-51
2023/03/26 05:51:47;;;;;;;8.32;2.38;;;11.60;74.60;;;;;;4982492;28;20514;-50
2023/03/26 05:54:42;;;;;;;8.75;2.30;;;11.60;74.60;;;;;;4985298;28;20163;-53
2023/03/26 05:57:29;;;;;;;4.97;2.80;;;11.60;74.60;;;;;;4988481;28;20054;-49
2023/03/26 06:00:15;;;;;;;7.13;2.63;;;11.60;74.60;;;;;;4989777;28;20132;-50
2023/03/26 06:02:46;;;;;;;8.85;3.05;;;11.70;75.20;;;;;;4990741;28;20055;-50
2023/03/26 06:05:41;;;;;;;9.55;3.95;;;11.70;74.60;;;;;;4991454;28;20061;-53
2023/03/26 06:08:14;;;;;;;10.32;3.83;;;11.70;74.40;;;;;;4972004;28;20523;-51
2023/03/26 06:10:57;;;;;;;11.52;4.70;;;11.70;74.40;;;;;;4987674;28;20112;-52
2023/03/26 06:13:23;;;;;;;8.73;4.60;;;11.70;74.40;;;;;;4990541;28;20048;-53
2023/03/26 06:15:53;;;;;;;12.10;4.50;;;11.70;74.40;;;;;;4973347;28;20034;-49
2023/03/26 06:18:30;;;;;;;10.32;4.25;;;11.70;74.40;;;;;;4969326;28;20038;-53
2023/03/26 06:21:17;;;;;;;15.63;9.35;;;11.70;74.30;;;;;;4988918;28;20081;-50
2023/03/26 06:23:57;;;;;;;12.82;9.68;;;11.70;74.40;;;;;;4971947;28;20050;-50
2023/03/26 06:26:52;;;;;;;13.63;6.72;;;11.70;74.50;;;;;;4972462;28;20053;-52
2023/03/26 06:29:44;;;;;;;8.40;4.30;;;11.70;74.60;;;;;;4988119;28;20060;-53
2023/03/26 06:32:25;;;;;;;7.63;4.20;;;11.80;74.70;;;;;;4989229;28;20152;-50
2023/03/26 06:35:04;;;;;;;9.25;3.88;;;11.80;74.80;;;;;;4973793;28;20045;-50
2023/03/26 06:37:31;;;;;;;6.13;3.38;;;11.80;74.90;;;;;;4978573;28;20498;-50
2023/03/26 06:40:05;;;;;;;6.75;3.55;;;11.80;74.90;;;;;;4989673;28;20066;-50
2023/03/26 06:42:59;;;;;;;6.25;3.00;;;11.80;75.00;;;;;;4985709;28;20045;-52
2023/03/26 06:45:39;;;;;;;6.85;3.88;;;11.80;74.90;;;;;;4990001;28;20054;-53
2023/03/26 06:48:38;;;;;;;6.15;2.83;;;11.80;75.00;;;;;;4946604;28;20072;-53
2023/03/26 06:51:29;;;;;;;5.90;2.05;;;11.90;75.10;;;;;;4981814;28;20525;-53
2023/03/26 06:54:22;;;;;;;5.43;2.47;;;11.90;75.10;;;;;;4982129;28;20061;-51
2023/03/26 06:56:55;;;;;;;6.53;2.60;;;11.90;74.90;;;;;;4984679;28;20042;-52
2023/03/26 06:59:51;;;;;;;6.85;2.90;;;11.90;75.00;;;;;;4989143;28;20057;-51
2023/03/26 07:02:36;;;;;;;6.00;2.75;;;11.90;75.00;;;;;;4989237;28;20538;-52
2023/03/26 07:05:21;;;;;;;7.32;2.17;;;11.90;75.10;;;;;;4981219;28;20524;-48
2023/03/26 07:08:07;;;;;;;6.82;3.10;;;11.90;75.10;;;;;;4983542;28;20061;-52
2023/03/26 07:10:52;;;;;;;5.50;2.63;;;11.90;75.10;;;;;;4989217;28;20053;-50
2023/03/26 07:13:41;;;;;;;5.97;2.35;;;12.00;75.30;;;;;;4977670;28;20054;-50
2023/03/26 07:16:36;;;;;;;7.80;3.65;;;12.00;75.20;;;;;;4984836;28;20555;-52
2023/03/26 07:19:22;;;;;;;9.90;3.35;;;12.00;75.30;;;;;;4994148;28;20591;-53
2023/03/26 07:21:51;;;;;;;6.07;3.53;;;12.10;75.20;;;;;;4964740;28;20413;-49
2023/03/26 07:24:43;;;;;;;10.45;4.45;;;12.10;75.90;;;;;;4989337;28;20080;-49
2023/03/26 07:28:03;;;;;;;9.80;4.40;;;12.10;76.00;;;;;;4961156;28;20497;-51
2023/03/26 07:31:42;;;;;;;6.50;3.47;;;12.20;75.40;;;;;;4922093;29;20059;-50
2023/03/26 07:34:35;;;;;;;10.52;4.03;;;12.20;75.30;;;;;;4981098;28;20054;-53
2023/03/26 07:37:25;;;;;;;5.97;2.60;;;12.20;74.80;;;;;;4988924;28;20039;-50
2023/03/26 07:40:53;;;;;;;7.07;4.03;;;12.20;74.60;;;;;;4987913;28;20049;-52
2023/03/26 07:43:58;;;;;;;3.17;2.38;;;12.20;74.90;;;;;;4969552;28;20414;-50
2023/03/26 07:46:46;;;;;;;8.27;2.45;;;12.20;74.80;;;;;;4995864;28;20056;-50
2023/03/26 07:49:34;;;;;;;7.68;3.17;;;12.20;74.70;;;;;;4988382;28;20054;-51
2023/03/26 07:52:12;;;;;;;3.88;2.13;;;12.30;74.80;;;;;;4989230;28;20069;-50
2023/03/26 07:54:58;;;;;;;8.10;2.53;;;12.20;74.80;;;;;;4993914;28;20140;-53
2023/03/26 07:58:08;;;;;;;3.17;1.60;;;12.30;74.80;;;;;;4968433;28;20109;-51
2023/03/26 08:01:20;;;;;;;6.25;2.28;;;12.30;75.10;;;;;;4932338;29;20059;-54
2023/03/26 08:04:08;;;;;;;4.60;2.10;;;12.30;75.00;;;;;;4990364;28;20544;-49
2023/03/26 08:07:50;;;;;;;4.47;2.60;;;12.30;75.10;;;;;;4989708;28;20057;-52
2023/03/26 08:10:44;;;;;;;7.57;2.08;;;12.40;75.20;;;;;;4976192;28;20562;-53
2023/03/26 08:13:21;;;;;;;6.68;3.22;;;12.40;75.30;;;;;;4987836;28;20438;-53
2023/03/26 08:15:59;;;;;;;6.95;2.75;;;12.40;75.00;;;;;;4991324;28;20503;-53
2023/03/26 08:18:40;;;;;;;6.65;1.92;;;12.40;75.10;;;;;;4992339;28;20045;-53
2023/03/26 08:21:46;;;;;;;6.97;2.80;;;12.40;75.10;;;;;;4990571;28;20038;-53
2023/03/26 08:24:24;;;;;;;7.93;2.50;;;12.40;75.10;;;;;;4974612;28;20058;-53
2023/03/26 08:27:00;;;;;;;6.82;2.97;;;12.40;74.90;;;;;;4992566;28;20685;-54
2023/03/26 08:30:01;;;;;;;7.00;3.00;;;12.40;74.90;;;;;;5000181;28;20045;-54
2023/03/26 08:32:28;;;;;;;5.05;2.63;;;12.40;75.10;;;;;;4987799;28;20038;-50
2023/03/26 08:34:58;;;;;;;7.45;3.22;;;12.40;75.10;;;;;;4994035;28;20042;-51
2023/03/26 08:37:26;;;;;;;7.72;3.45;;;12.40;75.20;;;;;;4993660;28;20038;-50
2023/03/26 08:39:53;;;;;;;5.20;3.22;;;12.40;75.20;;;;;;4972899;28;20463;-49
2023/03/26 08:42:50;;;;;;;7.90;3.47;;;12.50;75.40;;;;;;4987659;28;20034;-50
2023/03/26 08:45:50;;;;;;;5.60;3.40;;;12.50;75.60;;;;;;4988394;28;20046;-52
2023/03/26 08:48:35;;;;;;;5.15;2.60;;;12.50;75.40;;;;;;4986623;28;20059;-54
2023/03/26 08:51:32;;;;;;;6.65;3.00;;;12.50;75.40;;;;;;4983356;28;20042;-51
2023/03/26 08:54:11;;;;;;;5.65;3.00;;;12.50;75.60;;;;;;4989061;28;20043;-54
2023/03/26 08:57:05;;;;;;;7.82;3.97;;;12.60;75.50;;;;;;4988828;28;20066;-54
2023/03/26 09:00:04;;;;;;;5.13;3.15;;;12.60;75.40;;;;;;4988331;28;20443;-51
2023/03/26 09:02:51;;;;;;;8.68;2.78;;;12.60;75.20;;;;;;4988834;28;20042;-51
2023/03/26 09:05:45;;;;;;;5.30;2.78;;;12.60;75.40;;;;;;4987549;28;20050;-54
2023/03/26 09:08:43;;;;;;;6.65;2.88;;;12.60;75.10;;;;;;4982337;28;20057;-53
2023/03/26 09:11:44;;;;;;;6.65;3.00;;;12.60;75.30;;;;;;4987082;28;20053;-50
2023/03/26 09:14:23;;;;;;;7.43;3.63;;;12.70;75.00;;;;;;4991688;28;20043;-54
2023/03/26 09:17:08;;;;;;;8.45;4.38;;;12.60;74.50;;;;;;4988630;28;20046;-52
2023/03/26 09:19:53;;;;;;;10.63;6.55;;;12.60;74.30;;;;;;4987731;28;20050;-54
2023/03/26 09:22:47;;;;;;;9.65;4.13;;;12.60;74.30;;;;;;4985695;28;20043;-54
2023/03/26 09:25:40;;;;;;;7.80;5.00;;;12.60;74.00;;;;;;4991522;28;20121;-53
2023/03/26 09:28:20;;;;;;;7.63;5.22;;;12.60;73.70;;;;;;4989281;28;20058;-51
2023/03/26 09:31:05;;;;;;;7.25;3.95;;;12.60;73.80;;;;;;4989868;28;20042;-49
2023/03/26 09:33:58;;;;;;;5.43;3.78;;;12.60;73.90;;;;;;4987537;28;20423;-50
2023/03/26 09:36:55;;;;;;;3.40;3.10;;;12.60;74.40;;;;;;5023594;23;20045;-49
2023/03/26 09:39:36;;;;;;;2.92;2.70;;;12.60;74.40;;;;;;5010758;28;20046;-51
2023/03/26 09:42:13;;;;;;;2.20;2.00;;;12.60;74.40;;;;;;5001749;28;20121;-51
2023/03/26 09:45:18;;;;;;;1.55;1.45;;;12.60;74.30;;;;;;5009458;28;20034;-51
2023/03/26 09:47:59;;;;;;;1.50;1.08;;;12.60;74.10;;;;;;4996583;28;20057;-47
2023/03/26 09:50:41;;;;;;;1.85;0.88;;;12.70;73.80;;;;;;5031817;28;20045;-49
2023/03/26 09:53:49;;;;;;;3.38;1.15;;;12.70;73.90;;;;;;5026329;28;20587;-50
2023/03/26 09:56:42;;;;;;;3.13;2.30;;;12.70;73.80;;;;;;4955893;28;20054;-47
2023/03/26 09:59:20;;;;;;;3.05;2.35;;;12.70;73.70;;;;;;4962875;28;20047;-45
2023/03/26 10:01:49;;;;;;;2.55;1.90;;;12.70;73.60;;;;;;5005296;28;20064;-48
2023/03/26 10:04:54;;;;;;;5.80;5.28;;;12.80;73.90;;;;;;5024385;28;20513;-47
2023/03/26 10:07:47;;;;;;;2.80;2.30;;;12.80;73.50;;;;;;5020859;28;20052;-46
2023/03/26 10:10:37;;;;;;;;;;;12.80;73.40;;;;;;5022846;28;20679;-48
2023/03/26 10:13:25;;;;;;;1.58;1.25;;;12.90;73.20;;;;;;5003769;28;19929;-48
2023/03/26 10:16:00;;;;;;;1.85;1.70;;;12.90;72.90;;;;;;5017275;28;20038;-48
2023/03/26 10:18:45;;;;;;;2.70;1.65;;;13.00;73.30;;;;;;5019799;28;20057;-49
2023/03/26 10:21:27;;;;;;;1.65;1.40;;;13.00;73.20;;;;;;5021911;28;20063;-50
2023/03/26 10:24:08;;;;;;;1.80;1.20;;;13.10;73.40;;;;;;5023843;28;20038;-51
2023/03/26 10:26:53;;;;;;;2.50;1.95;;;13.10;73.10;;;;;;5033222;28;20096;-51
2023/03/26 10:29:39;;;;;;;3.15;2.25;;;13.20;73.00;;;;;;5021501;28;20121;-50
2023/03/26 10:32:16;;;;;;;2.05;1.50;;;13.20;72.90;;;;;;5020484;28;20037;-51
2023/03/26 10:35:03;;;;;;;2.35;1.65;;;13.30;72.80;;;;;;5022687;28;20041;-52
2023/03/26 10:37:48;;;;;;;2.30;1.45;;;13.30;72.60;;;;;;5013680;28;20083;-50
2023/03/26 10:40:45;;;;;;;1.35;1.02;;;13.30;72.60;;;;;;5016734;28;20038;-51
2023/03/26 10:43:56;;;;;;;2.22;1.55;;;13.40;72.60;;;;;;5012294;28;20046;-48
2023/03/26 10:47:17;;;;;;;3.05;1.40;;;13.40;72.20;;;;;;5018344;28;20085;-49
2023/03/26 10:49:58;;;;;;;5.82;3.97;;;13.50;72.50;;;;;;5020720;28;20041;-47
2023/03/26 10:52:47;;;;;;;5.90;4.47;;;13.60;72.60;;;;;;5042651;28;20047;-50
2023/03/26 10:55:37;;;;;;;2.83;2.63;;;13.60;72.40;;;;;;5024153;28;20433;-48
2023/03/26 10:58:28;;;;;;;2.92;2.25;;;13.70;72.40;;;;;;5021255;28;20037;-47
2023/03/26 11:01:34;;;;;;;1.95;1.60;;;13.80;72.20;;;;;;5022048;28;20095;-50
2023/03/26 11:04:30;;;;;;;3.03;1.60;;;13.90;71.60;;;;;;5025113;28;20042;-51
2023/03/26 11:07:33;;;;;;;2.35;1.60;;;13.90;71.20;;;;;;5017945;28;20038;-50
2023/03/26 11:10:15;;;;;;;2.47;1.48;;;14.00;70.80;;;;;;5018509;28;21915;-50
2023/03/26 11:12:48;;;;;;;;;;;14.10;70.40;;;;;;5023244;28;20464;-51
2023/03/26 11:15:28;;;;;;;2.70;0.90;;;14.10;70.80;;;;;;5023374;28;19921;-48
2023/03/26 11:18:15;;;;;;;1.23;1.00;;;14.10;70.20;;;;;;5018527;28;20088;-50
2023/03/26 11:21:10;;;;;;;2.58;1.50;;;14.20;69.90;;;;;;5021319;28;20091;-50
2023/03/26 11:23:57;;;;;;;1.10;0.95;;;14.20;70.00;;;;;;5025815;28;20041;-45
2023/03/26 11:26:43;;;;;;;2.75;1.50;;;14.20;69.10;;;;;;5021178;28;20046;-49
2023/03/26 11:29:40;;;;;;;2.53;0.80;;;14.20;69.50;;;;;;5022633;28;20495;-49
2023/03/26 11:32:13;;;;;;;0.80;0.63;;;14.30;69.00;;;;;;5022534;28;20048;-51
2023/03/26 11:34:43;;;;;;;0.40;0.40;;;14.30;69.30;;;;;;5021825;28;20077;-49
2023/03/26 11:37:18;;;;;;;1.63;1.08;;;14.30;69.20;;;;;;5018043;28;20087;-49
2023/03/26 11:39:55;;;;;;;1.95;0.55;;;14.30;69.10;;;;;;5022551;28;20045;-48
2023/03/26 11:42:23;;;;;;;1.00;0.70;;;14.20;69.00;;;;;;5019049;28;20374;-51
2023/03/26 11:44:55;;;;;;;2.28;0.90;;;14.30;69.20;;;;;;5009681;28;20050;-48
2023/03/26 11:47:35;;;;;;;2.50;0.90;;;14.20;69.20;;;;;;5017249;28;20041;-49
2023/03/26 11:50:05;;;;;;;2.70;1.23;;;14.20;68.80;;;;;;5021241;28;20069;-49
2023/03/26 11:52:32;;;;;;;2.33;1.63;;;14.20;68.80;;;;;;5015708;28;20088;-49
2023/03/26 11:54:59;;;;;;;4.00;1.35;;;14.20;69.10;;;;;;5013386;28;20659;-52
2023/03/26 11:57:33;;;;;;;2.15;1.27;;;14.20;68.90;;;;;;5027369;28;20037;-48
2023/03/26 12:00:16;;;;;;;1.00;0.82;;;14.10;68.60;;;;;;5017990;28;20045;-48
2023/03/26 12:02:45;;;;;;;1.90;1.38;;;14.20;68.80;;;;;;5016981;28;20038;-50
2023/03/26 12:05:21;;;;;;;1.83;1.13;;;14.10;68.80;;;;;;5010960;28;20042;-48
2023/03/26 12:07:59;;;;;;;1.05;0.95;;;14.10;68.80;;;;;;5011485;28;20049;-51
2023/03/26 12:10:38;;;;;;;2.08;1.38;;;14.10;68.40;;;;;;5020357;28;20053;-51
2023/03/26 12:13:20;;;;;;;1.97;1.30;;;14.10;69.00;;;;;;5019150;28;20037;-51
2023/03/26 12:15:46;;;;;;;2.25;1.33;;;14.10;68.90;;;;;;5027843;28;20069;-50
2023/03/26 12:18:25;;;;;;;1.85;1.02;;;14.00;69.20;;;;;;5022043;28;20152;-52
2023/03/26 12:21:18;;;;;;;1.08;0.98;;;14.00;69.00;;;;;;5019962;28;20422;-51
2023/03/26 12:24:05;;;;;;;2.22;1.52;;;14.00;68.70;;;;;;5017129;28;20057;-52
2023/03/26 12:26:41;;;;;;;1.25;1.10;;;14.00;69.10;;;;;;5015251;28;20626;-49
2023/03/26 12:29:15;;;;;;;;;;;14.00;70.10;;;;;;5020850;28;20060;-48
2023/03/26 12:32:10;;;;;;;1.65;0.80;;;14.10;69.60;;;;;;5022348;28;19983;-49
2023/03/26 12:34:38;;;;;;;1.38;0.68;;;14.10;68.40;;;;;;5008304;28;20081;-51
2023/03/26 12:37:26;;;;;;;3.20;1.20;;;14.00;68.30;;;;;;5019759;28;20056;-51
2023/03/26 12:40:10;;;;;;;1.40;0.95;;;14.00;68.30;;;;;;5018984;28;20498;-51
2023/03/26 12:42:51;;;;;;;1.65;1.00;;;14.00;68.50;;;;;;5019777;28;20041;-51
2023/03/26 12:45:41;;;;;;;0.63;0.63;;;13.90;68.20;;;;;;5023514;28;20110;-50
2023/03/26 12:48:14;;;;;;;1.33;0.80;;;13.90;68.80;;;;;;5021214;28;20050;-50
2023/03/26 12:50:55;;;;;;;2.80;0.85;;;13.90;68.30;;;;;;5019171;28;20053;-48
2023/03/26 12:53:57;;;;;;;2.03;1.02;;;13.80;68.40;;;;;;5025920;28;20045;-48
2023/03/26 12:56:34;;;;;;;1.95;1.05;;;13.80;68.30;;;;;;5011766;28;20041;-47
2023/03/26 12:59:30;;;;;;;1.00;0.82;;;13.80;68.40;;;;;;5027332;28;20064;-51
2023/03/26 13:01:57;;;;;;;1.90;1.50;;;13.80;68.30;;;;;;5022909;28;20073;-48
2023/03/26 13:04:48;;;;;;;2.05;1.13;;;13.80;68.40;;;;;;5023371;28;20041;-50
2023/03/26 13:08:06;;;;;;;1.00;1.00;;;13.80;68.50;;;;;;5019868;28;20038;-48
2023/03/26 13:10:59;;;;;;;1.33;0.77;;;13.80;68.90;;;;;;5023807;28;20765;-52
2023/03/26 13:13:51;;;;;;;1.90;1.05;;;13.80;68.90;;;;;;5013282;28;20037;-48
2023/03/26 13:16:38;;;;;;;1.33;0.90;;;13.80;68.40;;;;;;5018997;28;20049;-49
2023/03/26 13:19:22;;;;;;;2.30;0.80;;;13.90;68.70;;;;;;5015363;28;20081;-47
2023/03/26 13:22:06;;;;;;;2.40;0.80;;;13.90;68.00;;;;;;5025286;28;20692;-48
2023/03/26 13:24:42;;;;;;;1.27;1.15;;;13.90;67.70;;;;;;5015808;28;20045;-48
2023/03/26 13:27:29;;;;;;;0.93;0.93;;;13.90;67.30;;;;;;5017345;28;20041;-51
2023/03/26 13:30:05;;;;;;;4.00;0.65;;;13.90;67.60;;;;;;5038628;28;20111;-47
2023/03/26 13:32:57;;;;;;;0.43;0.40;;;13.90;67.40;;;;;;5018030;28;20816;-52
2023/03/26 13:35:34;;;;;;;;;;;13.90;67.50;;;;;;5025028;28;20042;-51
2023/03/26 13:38:21;;;;;;;1.25;0.68;;;13.90;67.90;;;;;;5022390;28;19930;-46
2023/03/26 13:40:59;;;;;;;0.38;0.32;;;13.90;67.50;;;;;;5025582;28;20045;-48
2023/03/26 13:43:45;;;;;;;0.40;0.40;;;13.90;67.50;;;;;;5024464;28;20580;-49
2023/03/26 13:46:44;;;;;;;0.43;0.43;;;13.80;66.90;;;;;;5022975;28;20051;-48
2023/03/26 13:49:19;;;;;;;1.02;0.50;;;13.80;67.00;;;;;;5023687;28;20045;-49
2023/03/26 13:52:01;;;;;;;1.50;0.80;;;13.90;67.40;;;;;;5025457;28;20091;-48
2023/03/26 13:54:31;;;;;;;1.30;1.20;;;13.90;67.60;;;;;;5020799;28;20034;-50
2023/03/26 13:57:04;;;;;;;3.40;1.13;;;13.90;68.00;;;;;;5019240;28;20078;-49
2023/03/26 13:59:38;;;;;;;1.08;0.80;;;14.00;67.60;;;;;;5020716;28;20242;-49